createdAt,value
2023-03-20T00:00:13.544Z,28.73
2023-03-20T00:01:56.662Z,28.84
2023-03-20T00:03:21.076Z,30.47
2023-03-20T00:04:54.829Z,29.65
2023-03-20T00:06:41.879Z,28.23
2023-03-20T00:08:15.742Z,36.09
2023-03-20T00:09:49.366Z,33.65
2023-03-20T00:11:13.841Z,43.46
2023-03-20T00:12:38.340Z,37.82
2023-03-20T00:14:13.751Z,37.75
2023-03-20T00:15:36.624Z,34.51
2023-03-20T00:17:06.420Z,39.66
2023-03-20T00:18:41.800Z,29.83
2023-03-20T00:20:03.889Z,25.55
2023-03-20T00:21:47.990Z,33.38
2023-03-20T00:23:12.121Z,41.32
2023-03-20T00:24:57.134Z,47.98
2023-03-20T00:26:30.541Z,27.50
2023-03-20T00:28:04.526Z,25.09
2023-03-20T00:29:41.105Z,25.46
2023-03-20T00:31:17.470Z,24.42
2023-03-20T00:32:41.850Z,23.62
2023-03-20T00:34:13.126Z,22.93
2023-03-20T00:35:49.082Z,24.85
2023-03-20T00:37:17.936Z,24.19
2023-03-20T00:39:04.295Z,23.33
2023-03-20T00:40:29.387Z,23.81
2023-03-20T00:42:14.754Z,25.17
2023-03-20T00:43:37.765Z,23.54
2023-03-20T00:45:22.732Z,24.18
2023-03-20T00:46:47.521Z,23.94
2023-03-20T00:48:28.738Z,23.90
2023-03-20T00:49:51.088Z,23.00
2023-03-20T00:51:26.737Z,23.15
2023-03-20T00:52:48.752Z,22.54
2023-03-20T00:54:33.925Z,22.72
2023-03-20T00:55:58.265Z,23.48
2023-03-20T00:57:43.276Z,24.88
2023-03-20T00:59:07.310Z,23.16
2023-03-20T01:00:43.139Z,24.00
2023-03-20T01:02:28.807Z,23.67
2023-03-20T01:03:52.922Z,24.68
2023-03-20T01:05:16.920Z,24.47
2023-03-20T01:06:40.209Z,24.68
2023-03-20T01:08:02.049Z,25.31
2023-03-20T01:09:37.669Z,23.76
2023-03-20T01:11:01.365Z,24.40
2023-03-20T01:12:48.167Z,24.49
2023-03-20T01:14:21.433Z,24.95
2023-03-20T01:15:45.576Z,24.55
2023-03-20T01:17:18.940Z,24.61
2023-03-20T01:19:00.456Z,25.18
2023-03-20T01:20:41.796Z,25.13
2023-03-20T01:22:10.512Z,24.42
2023-03-20T01:23:44.000Z,25.71
2023-03-20T01:25:17.331Z,25.91
2023-03-20T01:27:05.667Z,26.19
2023-03-20T01:28:39.293Z,24.72
2023-03-20T01:30:04.159Z,26.49
2023-03-20T01:31:26.256Z,26.67
2023-03-20T01:32:59.551Z,27.03
2023-03-20T01:34:26.742Z,26.66
2023-03-20T01:35:50.876Z,25.96
2023-03-20T01:37:19.776Z,26.89
2023-03-20T01:39:05.006Z,27.35
2023-03-20T01:40:50.390Z,26.92
2023-03-20T01:42:12.287Z,26.83
2023-03-20T01:43:47.856Z,29.01
2023-03-20T01:45:12.477Z,27.37
2023-03-20T01:46:36.951Z,26.85
2023-03-20T01:48:08.325Z,27.67
2023-03-20T01:49:34.232Z,27.61
2023-03-20T01:51:10.437Z,26.73
2023-03-20T01:52:32.191Z,27.03
2023-03-20T01:53:54.760Z,26.72
2023-03-20T01:55:28.557Z,27.41
2023-03-20T01:57:15.886Z,26.31
2023-03-20T01:58:39.916Z,25.96
2023-03-20T02:00:01.691Z,26.75
2023-03-20T02:01:35.855Z,26.71
2023-03-20T02:03:09.632Z,27.27
2023-03-20T02:05:08.112Z,25.89
2023-03-20T02:06:45.304Z,27.65
2023-03-20T02:08:23.144Z,26.92
2023-03-20T02:09:57.440Z,26.56
2023-03-20T02:11:45.142Z,26.29
2023-03-20T02:13:18.592Z,27.68
2023-03-20T02:14:53.471Z,26.15
2023-03-20T02:16:59.929Z,27.43
2023-03-20T02:18:52.012Z,26.00
2023-03-20T02:20:27.741Z,26.41
2023-03-20T02:22:01.233Z,26.61
2023-03-20T02:23:34.446Z,27.03
2023-03-20T02:25:19.147Z,27.05
2023-03-20T02:27:01.413Z,27.04
2023-03-20T02:28:30.525Z,28.05
2023-03-20T02:30:16.285Z,27.31
2023-03-20T02:32:08.739Z,27.86
2023-03-20T02:33:44.853Z,27.07
2023-03-20T02:35:25.860Z,27.65
2023-03-20T02:36:59.322Z,27.39
2023-03-20T02:38:40.327Z,27.69
2023-03-20T02:40:16.276Z,26.40
2023-03-20T02:41:54.621Z,26.08
2023-03-20T02:43:28.161Z,28.09
2023-03-20T02:45:09.464Z,29.73
2023-03-20T02:46:52.897Z,29.87
2023-03-20T02:48:36.711Z,28.63
2023-03-20T02:50:13.311Z,29.75
2023-03-20T02:51:51.242Z,28.57
2023-03-20T02:53:24.515Z,29.52
2023-03-20T02:55:09.962Z,28.87
2023-03-20T02:56:50.629Z,28.92
2023-03-20T02:58:40.201Z,28.89
2023-03-20T03:00:25.459Z,28.05
2023-03-20T03:02:01.156Z,29.99
2023-03-20T03:03:34.698Z,30.96
2023-03-20T03:05:15.597Z,31.36
2023-03-20T03:07:07.715Z,31.01
2023-03-20T03:08:54.043Z,32.46
2023-03-20T03:10:29.796Z,31.91
2023-03-20T03:12:05.287Z,33.84
2023-03-20T03:13:36.901Z,31.12
2023-03-20T03:15:22.051Z,31.54
2023-03-20T03:17:12.273Z,33.82
2023-03-20T03:18:54.416Z,34.28
2023-03-20T03:20:39.517Z,33.66
2023-03-20T03:22:24.328Z,34.96
2023-03-20T03:23:48.759Z,32.11
2023-03-20T03:25:29.918Z,33.60
2023-03-20T03:27:15.362Z,34.38
2023-03-20T03:29:09.917Z,32.92
2023-03-20T03:31:04.966Z,32.67
2023-03-20T03:32:39.055Z,33.72
2023-03-20T03:34:14.855Z,32.15
2023-03-20T03:36:00.487Z,32.77
2023-03-20T03:37:41.556Z,33.35
2023-03-20T03:39:22.329Z,32.48
2023-03-20T03:41:15.697Z,32.04
2023-03-20T03:43:00.774Z,33.13
2023-03-20T03:44:26.864Z,32.77
2023-03-20T03:46:11.525Z,31.83
2023-03-20T03:48:02.744Z,31.99
2023-03-20T03:49:37.148Z,30.94
2023-03-20T03:51:19.911Z,31.47
2023-03-20T03:53:14.656Z,30.08
2023-03-20T03:55:09.959Z,30.41
2023-03-20T03:56:34.074Z,29.99
2023-03-20T03:58:09.925Z,29.56
2023-03-20T03:59:55.568Z,29.60
2023-03-20T04:01:43.486Z,30.88
2023-03-20T04:03:28.458Z,29.70
2023-03-20T04:04:50.483Z,29.27
2023-03-20T04:06:24.275Z,30.50
2023-03-20T04:08:00.766Z,30.42
2023-03-20T04:09:47.469Z,29.83
2023-03-20T04:11:37.292Z,31.52
2023-03-20T04:13:13.998Z,29.78
2023-03-20T04:15:03.003Z,31.83
2023-03-20T04:16:57.312Z,31.81
2023-03-20T04:18:51.904Z,32.18
2023-03-20T04:20:25.179Z,30.72
2023-03-20T04:22:02.648Z,30.19
2023-03-20T04:23:56.920Z,32.04
2023-03-20T04:25:33.935Z,30.15
2023-03-20T04:27:17.948Z,29.20
2023-03-20T04:28:42.079Z,29.57
2023-03-20T04:30:34.800Z,29.47
2023-03-20T04:32:35.934Z,30.31
2023-03-20T04:34:11.282Z,30.46
2023-03-20T04:35:55.743Z,30.00
2023-03-20T04:37:40.649Z,33.29
2023-03-20T04:39:25.965Z,32.83
2023-03-20T04:40:58.289Z,32.69
2023-03-20T04:42:20.321Z,33.83
2023-03-20T04:43:53.347Z,32.24
2023-03-20T04:45:22.412Z,31.28
2023-03-20T04:47:08.007Z,31.14
2023-03-20T04:49:02.992Z,29.56
2023-03-20T04:50:57.916Z,33.85
2023-03-20T04:52:38.756Z,34.31
2023-03-20T04:54:12.429Z,29.74
2023-03-20T04:55:48.796Z,32.65
2023-03-20T04:57:34.575Z,33.60
2023-03-20T04:59:20.171Z,71.64
2023-03-20T05:00:42.259Z,53.98
2023-03-20T05:02:15.807Z,43.04
2023-03-20T05:04:01.432Z,44.19
2023-03-20T05:05:42.098Z,50.21
2023-03-20T05:07:28.793Z,83.21
2023-03-20T05:09:20.579Z,75.82
2023-03-20T05:10:57.165Z,46.37
2023-03-20T05:12:49.975Z,37.37
2023-03-20T05:15:01.693Z,32.66
2023-03-20T05:16:50.015Z,44.07
2023-03-20T05:18:58.913Z,33.82
2023-03-20T05:21:00.920Z,36.49
2023-03-20T05:22:45.608Z,31.07
2023-03-20T05:24:39.915Z,31.96
2023-03-20T05:26:37.191Z,30.23
2023-03-20T05:28:38.835Z,31.79
2023-03-20T05:30:20.677Z,32.40
2023-03-20T05:32:05.622Z,31.65
2023-03-20T05:34:06.399Z,31.80
2023-03-20T05:36:37.921Z,31.16
2023-03-20T05:38:50.816Z,74.26
2023-03-20T05:40:50.486Z,51.40
2023-03-20T05:43:20.745Z,62.18
2023-03-20T05:45:18.289Z,59.46
2023-03-20T05:47:14.782Z,62.78
2023-03-20T05:49:01.659Z,45.38
2023-03-20T05:50:43.626Z,54.54
2023-03-20T05:52:44.242Z,44.18
2023-03-20T05:54:16.552Z,51.94
2023-03-20T05:56:31.056Z,58.21
2023-03-20T05:58:24.790Z,46.73
2023-03-20T06:00:46.266Z,52.01
2023-03-20T06:03:10.101Z,69.34
2023-03-20T06:05:03.805Z,57.72
2023-03-20T06:06:53.465Z,48.35
2023-03-20T06:08:39.831Z,44.55
2023-03-20T06:10:14.867Z,52.09
2023-03-20T06:11:48.424Z,56.33
2023-03-20T06:13:15.019Z,51.07
2023-03-20T06:15:09.900Z,45.92
2023-03-20T06:17:12.926Z,46.77
2023-03-20T06:19:06.626Z,43.58
2023-03-20T06:21:00.812Z,47.47
2023-03-20T06:22:46.310Z,54.13
2023-03-20T06:24:42.918Z,53.14
2023-03-20T06:26:36.500Z,47.91
2023-03-20T06:28:14.100Z,45.97
2023-03-20T06:30:02.181Z,45.82
2023-03-20T06:31:56.475Z,43.96
2023-03-20T06:33:45.629Z,46.88
2023-03-20T06:35:32.832Z,47.47
2023-03-20T06:37:17.762Z,51.37
2023-03-20T06:39:03.161Z,49.73
2023-03-20T06:40:51.584Z,50.54
2023-03-20T06:42:37.305Z,53.53
2023-03-20T06:44:14.811Z,56.82
2023-03-20T06:46:53.925Z,54.35
2023-03-20T06:48:28.425Z,53.35
2023-03-20T06:50:04.060Z,54.23
2023-03-20T06:51:58.902Z,52.03
2023-03-20T06:53:47.626Z,51.75
2023-03-20T06:55:14.886Z,51.56
2023-03-20T06:56:48.810Z,49.48
2023-03-20T06:58:24.592Z,50.45
2023-03-20T07:02:16.573Z,52.96
2023-03-20T07:03:50.909Z,53.80
2023-03-20T07:05:36.403Z,49.51
2023-03-20T07:07:23.521Z,48.81
2023-03-20T07:09:09.785Z,49.20
2023-03-20T07:10:32.106Z,47.64
2023-03-20T07:12:20.295Z,46.11
2023-03-20T07:13:56.519Z,47.51
2023-03-20T07:16:04.078Z,46.40
2023-03-20T07:17:50.933Z,44.85
2023-03-20T07:19:25.153Z,45.31
2023-03-20T07:21:02.262Z,44.63
2023-03-20T07:22:49.101Z,45.09
2023-03-20T07:24:47.852Z,41.11
2023-03-20T07:26:34.013Z,44.55
2023-03-20T07:28:19.805Z,40.73
2023-03-20T07:30:17.289Z,40.42
2023-03-20T07:32:02.844Z,40.30
2023-03-20T07:34:00.866Z,38.47
2023-03-20T07:35:57.913Z,39.45
2023-03-20T07:37:31.902Z,40.76
2023-03-20T07:39:08.182Z,38.46
2023-03-20T07:40:55.257Z,37.42
2023-03-20T07:42:40.921Z,40.39
2023-03-20T07:44:39.195Z,40.89
2023-03-20T07:46:38.891Z,43.75
2023-03-20T07:48:25.122Z,42.08
2023-03-20T07:50:12.620Z,43.41
2023-03-20T07:51:48.760Z,43.29
2023-03-20T07:53:35.206Z,42.35
2023-03-20T07:55:21.887Z,44.52
2023-03-20T07:56:55.666Z,42.71
2023-03-20T07:58:50.904Z,43.99
2023-03-20T08:00:40.897Z,46.52
2023-03-20T08:02:35.955Z,46.10
2023-03-20T08:04:22.659Z,44.84
2023-03-20T08:06:08.407Z,43.05
2023-03-20T08:07:53.775Z,45.05
2023-03-20T08:09:49.905Z,44.78
2023-03-20T08:11:35.294Z,44.66
2023-03-20T08:13:20.699Z,43.57
2023-03-20T08:15:05.656Z,41.85
2023-03-20T08:17:06.141Z,41.49
2023-03-20T08:19:04.430Z,43.45
2023-03-20T08:20:50.197Z,40.92
2023-03-20T08:22:36.004Z,41.17
2023-03-20T08:24:09.041Z,39.90
2023-03-20T08:25:54.707Z,42.00
2023-03-20T08:27:39.831Z,39.55
2023-03-20T08:29:25.044Z,36.69
2023-03-20T08:31:18.983Z,37.21
2023-03-20T08:33:12.242Z,34.76
2023-03-20T08:34:58.039Z,38.13
2023-03-20T08:36:44.722Z,37.63
2023-03-20T08:38:19.953Z,35.62
2023-03-20T08:39:56.659Z,31.82
2023-03-20T08:41:46.034Z,33.15
2023-03-20T08:43:40.924Z,31.97
2023-03-20T08:45:27.598Z,31.32
2023-03-20T08:47:14.387Z,32.74
2023-03-20T08:49:09.904Z,32.41
2023-03-20T08:50:51.851Z,35.01
2023-03-20T08:52:37.454Z,35.35
2023-03-20T08:54:23.102Z,32.89
2023-03-20T08:56:00.110Z,32.83
2023-03-20T08:57:53.503Z,32.23
2023-03-20T08:59:26.957Z,31.81
2023-03-20T09:01:09.995Z,31.96
2023-03-20T09:03:04.284Z,32.34
2023-03-20T09:04:38.302Z,33.20
2023-03-20T09:06:13.289Z,33.34
2023-03-20T09:07:58.599Z,33.39
2023-03-20T09:09:33.347Z,32.03
2023-03-20T09:11:20.997Z,30.16
2023-03-20T09:13:23.737Z,28.16
2023-03-20T09:15:11.499Z,27.69
2023-03-20T09:16:56.764Z,27.35
2023-03-20T09:18:33.638Z,27.53
2023-03-20T09:20:18.728Z,26.27
2023-03-20T09:21:59.971Z,27.63
2023-03-20T09:23:48.744Z,27.36
2023-03-20T09:25:23.114Z,25.61
2023-03-20T09:27:16.915Z,26.66
2023-03-20T09:28:59.911Z,26.99
2023-03-20T09:30:53.614Z,27.93
2023-03-20T09:32:47.194Z,28.13
2023-03-20T09:34:32.082Z,28.60
2023-03-20T09:36:17.650Z,27.15
2023-03-20T09:38:07.395Z,28.81
2023-03-20T09:39:41.318Z,30.26
2023-03-20T09:41:10.321Z,30.06
2023-03-20T09:42:56.679Z,31.25
2023-03-20T09:44:21.001Z,32.92
2023-03-20T09:45:57.307Z,39.16
2023-03-20T09:47:43.062Z,41.22
2023-03-20T09:49:28.284Z,41.77
2023-03-20T09:51:10.908Z,40.25
2023-03-20T09:53:04.992Z,38.99
2023-03-20T09:54:54.190Z,34.60
2023-03-20T09:56:48.901Z,33.39
2023-03-20T09:58:25.255Z,35.52
2023-03-20T10:00:19.927Z,35.55
2023-03-20T10:02:06.271Z,34.57
2023-03-20T10:03:52.344Z,34.21
2023-03-20T10:05:38.335Z,33.16
2023-03-20T10:07:13.268Z,33.19
2023-03-20T10:08:47.035Z,32.20
2023-03-20T10:10:20.763Z,32.13
2023-03-20T10:12:07.874Z,32.65
2023-03-20T10:14:02.920Z,32.95
2023-03-20T10:15:56.981Z,33.56
2023-03-20T10:17:43.048Z,30.64
2023-03-20T10:19:09.483Z,31.60
2023-03-20T10:20:59.902Z,31.71
2023-03-20T10:22:34.848Z,31.47
2023-03-20T10:24:11.539Z,32.82
2023-03-20T10:25:57.793Z,33.50
2023-03-20T10:27:42.080Z,31.60
2023-03-20T10:29:23.350Z,30.91
2023-03-20T10:30:57.312Z,30.13
2023-03-20T10:32:29.005Z,28.90
2023-03-20T10:33:53.722Z,28.44
2023-03-20T10:35:23.020Z,27.25
2023-03-20T10:37:08.451Z,26.32
2023-03-20T10:38:30.520Z,27.38
2023-03-20T10:40:05.580Z,27.43
2023-03-20T10:41:39.350Z,29.24
2023-03-20T10:43:12.401Z,28.16
2023-03-20T10:44:41.898Z,26.93
2023-03-20T10:46:08.222Z,27.47
2023-03-20T10:47:42.667Z,28.37
2023-03-20T10:49:08.890Z,28.87
2023-03-20T10:50:30.943Z,29.57
2023-03-20T10:51:53.407Z,29.36
2023-03-20T10:53:22.384Z,29.36
2023-03-20T10:54:55.738Z,29.78
2023-03-20T10:56:29.665Z,28.40
2023-03-20T10:58:05.484Z,28.85
2023-03-20T10:59:27.871Z,28.83
2023-03-20T11:01:07.176Z,28.99
2023-03-20T11:02:41.159Z,29.24
2023-03-20T11:04:10.141Z,27.47
2023-03-20T11:06:08.501Z,25.88
2023-03-20T11:08:03.910Z,24.50
2023-03-20T11:09:30.341Z,22.34
2023-03-20T11:11:03.663Z,20.59
2023-03-20T11:12:40.365Z,20.04
2023-03-20T11:14:26.061Z,20.19
2023-03-20T11:16:11.017Z,21.08
2023-03-20T11:17:52.240Z,20.42
2023-03-20T11:19:21.353Z,20.91
2023-03-20T11:20:54.743Z,19.49
2023-03-20T11:22:19.305Z,20.00
2023-03-20T11:25:52.669Z,19.62
2023-03-20T11:27:16.603Z,19.29
2023-03-20T11:28:52.675Z,19.17
2023-03-20T11:30:26.270Z,17.79
2023-03-20T11:31:59.947Z,17.06
2023-03-20T11:33:24.056Z,17.43
2023-03-20T11:35:06.068Z,17.58
2023-03-20T11:36:30.270Z,16.07
2023-03-20T11:38:06.001Z,16.39
2023-03-20T11:39:48.194Z,17.34
2023-03-20T11:41:21.631Z,15.94
2023-03-20T11:42:48.389Z,16.34
2023-03-20T11:44:14.788Z,16.43
2023-03-20T11:45:58.856Z,16.45
2023-03-20T11:47:33.289Z,16.79
2023-03-20T11:49:06.528Z,16.42
2023-03-20T11:50:28.777Z,17.81
2023-03-20T11:52:03.907Z,17.05
2023-03-20T11:53:37.778Z,16.75
2023-03-20T11:55:13.403Z,17.19
2023-03-20T11:56:58.959Z,17.19
2023-03-20T11:58:32.641Z,17.37
2023-03-20T12:00:13.276Z,16.86
2023-03-20T12:01:56.441Z,15.87
2023-03-20T12:03:18.244Z,17.74
2023-03-20T12:04:43.969Z,18.53
2023-03-20T12:06:17.734Z,19.31
2023-03-20T12:08:00.293Z,18.67
2023-03-20T12:09:29.880Z,19.24
2023-03-20T12:11:03.682Z,19.00
2023-03-20T12:12:57.356Z,17.95
2023-03-20T12:14:43.539Z,17.41
2023-03-20T12:16:17.306Z,18.04
2023-03-20T12:17:51.317Z,17.16
2023-03-20T12:19:45.903Z,16.99
2023-03-20T12:21:17.460Z,17.00
2023-03-20T12:22:59.305Z,17.72
2023-03-20T12:24:41.718Z,17.93
2023-03-20T12:26:14.826Z,18.20
2023-03-20T12:27:56.917Z,16.25
2023-03-20T12:29:32.932Z,16.49
2023-03-20T12:31:08.681Z,16.20
2023-03-20T12:32:45.298Z,16.39
2023-03-20T12:34:16.400Z,16.13
2023-03-20T12:35:50.365Z,17.10
2023-03-20T12:37:43.655Z,15.89
2023-03-20T12:39:29.470Z,15.28
2023-03-20T12:41:03.248Z,15.06
2023-03-20T12:42:27.510Z,16.18
2023-03-20T12:44:12.913Z,16.77
2023-03-20T12:45:46.873Z,18.20
2023-03-20T12:47:08.579Z,18.55
2023-03-20T12:48:33.262Z,20.29
2023-03-20T12:49:55.911Z,20.66
2023-03-20T12:51:41.072Z,22.42
2023-03-20T12:53:04.614Z,23.70
2023-03-20T12:54:26.486Z,24.74
2023-03-20T12:56:02.541Z,23.38
2023-03-20T12:57:36.241Z,23.48
2023-03-20T12:59:18.900Z,23.54
2023-03-20T13:00:52.372Z,24.18
2023-03-20T13:02:26.082Z,24.53
2023-03-20T13:04:00.047Z,24.36
2023-03-20T13:05:24.040Z,24.73
2023-03-20T13:06:59.489Z,25.91
2023-03-20T13:08:31.191Z,25.34
2023-03-20T13:09:53.243Z,24.84
2023-03-20T13:11:26.853Z,24.73
2023-03-20T13:12:56.141Z,24.81
2023-03-20T13:14:20.440Z,25.91
2023-03-20T13:15:44.841Z,31.28
2023-03-20T13:17:08.491Z,30.17
2023-03-20T13:18:44.409Z,32.74
2023-03-20T13:20:07.994Z,43.50
2023-03-20T13:21:41.682Z,28.20
2023-03-20T13:23:26.973Z,24.85
2023-03-20T13:25:09.902Z,24.82
2023-03-20T13:27:03.922Z,24.07
2023-03-20T13:28:40.234Z,24.77
2023-03-20T13:30:24.973Z,23.60
2023-03-20T13:31:47.641Z,23.42
2023-03-20T13:33:20.895Z,24.95
2023-03-20T13:34:54.566Z,29.25
2023-03-20T13:36:30.937Z,28.18
2023-03-20T13:38:04.902Z,31.49
2023-03-20T13:39:50.911Z,41.32
2023-03-20T13:41:26.537Z,26.81
2023-03-20T13:42:50.942Z,26.52
2023-03-20T13:44:15.187Z,28.55
2023-03-20T13:45:48.914Z,25.75
2023-03-20T13:47:22.627Z,27.93
2023-03-20T13:49:03.813Z,25.87
2023-03-20T13:50:25.706Z,25.42
2023-03-20T13:51:47.544Z,24.51
2023-03-20T13:53:11.624Z,23.46
2023-03-20T13:54:45.287Z,24.31
2023-03-20T13:56:09.026Z,33.51
2023-03-20T13:57:38.586Z,44.21
2023-03-20T13:59:01.121Z,26.24
2023-03-20T14:00:34.586Z,26.62
2023-03-20T14:01:56.856Z,27.73
2023-03-20T14:03:30.928Z,22.03
2023-03-20T14:04:53.224Z,20.84
2023-03-20T14:06:47.920Z,19.39
2023-03-20T14:08:11.890Z,19.48
2023-03-20T14:09:57.337Z,17.09
2023-03-20T14:11:32.937Z,17.06
2023-03-20T14:13:08.524Z,17.51
2023-03-20T14:14:44.921Z,22.58
2023-03-20T14:16:07.072Z,19.15
2023-03-20T14:17:40.764Z,20.30
2023-03-20T14:19:25.862Z,21.82
2023-03-20T14:21:20.021Z,18.91
2023-03-20T14:22:49.332Z,19.84
2023-03-20T14:24:20.452Z,21.16
2023-03-20T14:26:01.630Z,21.31
2023-03-20T14:27:45.163Z,19.97
2023-03-20T14:29:31.339Z,20.32
2023-03-20T14:31:07.076Z,20.04
2023-03-20T14:32:31.655Z,19.67
2023-03-20T14:34:12.243Z,19.86
2023-03-20T14:35:47.761Z,20.89
2023-03-20T14:37:20.188Z,19.34
2023-03-20T14:38:54.888Z,20.79
2023-03-20T14:40:28.428Z,19.43
2023-03-20T14:41:50.329Z,18.00
2023-03-20T14:43:25.745Z,17.86
2023-03-20T14:44:48.124Z,15.64
2023-03-20T14:46:33.029Z,18.16
2023-03-20T14:48:06.599Z,21.93
2023-03-20T14:50:00.588Z,19.31
2023-03-20T14:51:34.332Z,15.74
2023-03-20T14:53:16.942Z,17.52
2023-03-20T14:54:39.131Z,19.82
2023-03-20T14:56:02.090Z,21.42
2023-03-20T14:57:35.728Z,17.44
2023-03-20T14:59:24.667Z,21.62
2023-03-20T15:00:46.303Z,23.84
2023-03-20T15:02:22.663Z,29.14
2023-03-20T15:03:44.582Z,29.85
2023-03-20T15:05:17.994Z,29.92
2023-03-20T15:06:44.534Z,25.30
2023-03-20T15:08:06.204Z,24.29
2023-03-20T15:09:43.298Z,28.86
2023-03-20T15:11:05.084Z,26.88
2023-03-20T15:12:39.068Z,27.08
2023-03-20T15:14:03.132Z,30.28
2023-03-20T15:15:52.927Z,32.82
2023-03-20T15:17:46.841Z,26.19
2023-03-20T15:19:31.930Z,27.15
2023-03-20T15:21:14.439Z,28.76
2023-03-20T15:22:49.196Z,31.59
2023-03-20T15:24:23.515Z,29.81
2023-03-20T15:25:48.705Z,28.44
2023-03-20T15:27:13.409Z,27.69
2023-03-20T15:28:58.838Z,26.01
2023-03-20T15:30:32.874Z,25.86
2023-03-20T15:32:14.436Z,25.48
2023-03-20T15:33:48.217Z,27.49
2023-03-20T15:35:21.235Z,24.00
2023-03-20T15:36:43.089Z,23.89
2023-03-20T15:38:05.323Z,24.76
2023-03-20T15:39:39.736Z,24.58
2023-03-20T15:41:15.416Z,27.76
2023-03-20T15:42:38.060Z,25.49
2023-03-20T15:44:06.758Z,26.89
2023-03-20T15:45:42.994Z,26.05
2023-03-20T15:47:23.479Z,24.47
2023-03-20T15:49:08.376Z,26.49
2023-03-20T15:50:54.976Z,26.43
2023-03-20T15:52:28.726Z,26.71
2023-03-20T15:54:14.279Z,26.73
2023-03-20T15:55:38.454Z,29.18
2023-03-20T15:57:02.591Z,28.42
2023-03-20T15:58:36.059Z,30.67
2023-03-20T16:00:06.062Z,28.90
2023-03-20T16:01:28.999Z,32.01
2023-03-20T16:02:51.022Z,35.06
2023-03-20T16:04:45.942Z,31.37
2023-03-20T16:06:17.853Z,31.74
2023-03-20T16:07:51.526Z,30.61
2023-03-20T16:09:15.367Z,30.03
2023-03-20T16:11:07.850Z,30.19
2023-03-20T16:12:51.006Z,31.18
2023-03-20T16:14:15.258Z,31.69
2023-03-20T16:15:57.829Z,29.65
2023-03-20T16:17:51.083Z,30.72
2023-03-20T16:19:24.537Z,34.63
2023-03-20T16:20:59.957Z,34.72
2023-03-20T16:22:43.008Z,36.28
2023-03-20T16:24:18.527Z,38.20
2023-03-20T16:25:54.247Z,34.49
2023-03-20T16:27:28.051Z,34.65
2023-03-20T16:29:14.241Z,36.68
2023-03-20T16:30:49.173Z,34.53
2023-03-20T16:32:30.094Z,37.86
2023-03-20T16:34:10.748Z,41.57
2023-03-20T16:35:32.680Z,45.18
2023-03-20T16:37:18.048Z,70.36
2023-03-20T16:39:09.659Z,61.41
2023-03-20T16:40:59.974Z,100.48
2023-03-20T16:42:55.057Z,83.96
2023-03-20T16:44:16.734Z,48.01
2023-03-20T16:45:38.833Z,66.80
2023-03-20T16:47:23.501Z,61.87
2023-03-20T16:49:12.216Z,50.70
2023-03-20T16:51:05.820Z,49.90
2023-03-20T16:52:39.578Z,66.71
2023-03-20T16:54:15.746Z,76.71
2023-03-20T16:55:49.589Z,96.70
2023-03-20T16:57:13.569Z,51.55
2023-03-20T16:58:59.027Z,56.50
2023-03-20T17:00:32.821Z,41.14
2023-03-20T17:01:55.029Z,46.41
2023-03-20T17:03:18.776Z,52.42
2023-03-20T17:04:41.232Z,49.40
2023-03-20T17:06:25.852Z,41.84
2023-03-20T17:08:06.728Z,50.53
2023-03-20T17:09:31.613Z,48.95
2023-03-20T17:11:04.752Z,44.75
2023-03-20T17:12:38.494Z,42.39
2023-03-20T17:14:04.827Z,43.89
2023-03-20T17:15:38.899Z,72.24
2023-03-20T17:17:14.445Z,79.37
2023-03-20T17:18:36.374Z,58.53
2023-03-20T17:20:05.586Z,59.72
2023-03-20T17:21:39.376Z,51.42
2023-03-20T17:23:16.217Z,47.87
2023-03-20T17:24:38.634Z,47.75
2023-03-20T17:26:02.543Z,47.72
2023-03-20T17:27:38.216Z,43.09
2023-03-20T17:29:02.111Z,47.11
2023-03-20T17:30:23.823Z,56.66
2023-03-20T17:31:57.476Z,72.98
2023-03-20T17:33:21.446Z,62.22
2023-03-20T17:34:46.223Z,62.11
2023-03-20T17:36:10.772Z,66.45
2023-03-20T17:37:32.806Z,56.89
2023-03-20T17:39:08.645Z,49.92
2023-03-20T17:40:42.841Z,44.85
2023-03-20T17:42:16.651Z,45.91
2023-03-20T17:43:51.621Z,43.31
2023-03-20T17:45:25.385Z,41.42
2023-03-20T17:47:19.928Z,48.39
2023-03-20T17:48:42.570Z,44.40
2023-03-20T17:50:06.648Z,44.87
2023-03-20T17:51:40.977Z,42.52
2023-03-20T17:53:02.820Z,44.53
2023-03-20T17:54:39.769Z,45.67
2023-03-20T17:56:13.571Z,43.62
2023-03-20T17:57:58.965Z,49.84
2023-03-20T17:59:40.557Z,52.13
2023-03-20T18:01:14.102Z,49.39
2023-03-20T18:02:46.537Z,45.21
2023-03-20T18:04:19.967Z,44.05
2023-03-20T18:05:51.849Z,45.02
2023-03-20T18:07:25.563Z,45.27
2023-03-20T18:09:01.369Z,48.34
2023-03-20T18:10:23.143Z,53.07
2023-03-20T18:11:45.050Z,47.41
2023-03-20T18:13:07.263Z,49.07
2023-03-20T18:14:29.362Z,62.60
2023-03-20T18:15:51.583Z,50.50
2023-03-20T18:17:16.119Z,51.37
2023-03-20T18:18:45.685Z,42.04
2023-03-20T18:20:19.467Z,48.03
2023-03-20T18:21:55.208Z,49.83
2023-03-20T18:23:40.936Z,76.43
2023-03-20T18:25:16.721Z,62.44
2023-03-20T18:26:52.935Z,52.20
2023-03-20T18:28:26.745Z,50.31
2023-03-20T18:30:16.948Z,61.53
2023-03-20T18:31:50.927Z,50.51
2023-03-20T18:33:37.730Z,54.29
2023-03-20T18:35:09.553Z,47.69
2023-03-20T18:36:43.911Z,59.50
2023-03-20T18:38:24.983Z,66.85
2023-03-20T18:40:01.013Z,59.67
2023-03-20T18:41:32.879Z,49.89
2023-03-20T18:43:15.195Z,51.14
2023-03-20T18:44:47.249Z,46.93
2023-03-20T18:46:11.060Z,59.51
2023-03-20T18:47:45.826Z,50.10
2023-03-20T18:49:17.325Z,57.95
2023-03-20T18:51:02.640Z,45.74
2023-03-20T18:52:43.608Z,47.40
2023-03-20T18:54:07.897Z,46.40
2023-03-20T18:55:31.878Z,52.38
2023-03-20T18:57:16.871Z,44.33
2023-03-20T18:58:39.568Z,65.16
2023-03-20T19:00:08.394Z,90.21
2023-03-20T19:01:51.074Z,89.75
2023-03-20T19:03:24.286Z,55.50
2023-03-20T19:04:54.049Z,53.06
2023-03-20T19:06:39.335Z,58.44
2023-03-20T19:08:03.689Z,65.91
2023-03-20T19:09:37.674Z,46.37
2023-03-20T19:11:15.208Z,45.48
2023-03-20T19:12:38.638Z,54.83
2023-03-20T19:14:19.306Z,44.55
2023-03-20T19:15:43.759Z,46.24
2023-03-20T19:17:17.259Z,44.90
2023-03-20T19:18:52.861Z,38.94
2023-03-20T19:20:26.292Z,39.51
2023-03-20T19:21:59.851Z,38.22
2023-03-20T19:23:35.881Z,39.95
2023-03-20T19:25:21.589Z,45.57
2023-03-20T19:26:56.884Z,43.73
2023-03-20T19:28:50.883Z,39.35
2023-03-20T19:30:31.721Z,39.18
2023-03-20T19:32:01.366Z,40.02
2023-03-20T19:33:25.375Z,41.80
2023-03-20T19:37:05.926Z,34.00
2023-03-20T19:38:39.642Z,35.71
2023-03-20T19:40:13.010Z,36.01
2023-03-20T19:41:37.890Z,34.82
2023-03-20T19:43:11.200Z,34.86
2023-03-20T19:44:33.386Z,34.37
2023-03-20T19:46:09.678Z,32.73
2023-03-20T19:47:44.709Z,34.15
2023-03-20T19:49:20.657Z,34.85
2023-03-20T19:50:43.805Z,36.57
2023-03-20T19:52:19.641Z,36.32
2023-03-20T19:53:41.957Z,36.79
2023-03-20T19:55:06.437Z,36.45
2023-03-20T19:56:40.560Z,37.88
2023-03-20T19:58:05.125Z,37.42
2023-03-20T19:59:43.651Z,35.97
2023-03-20T20:01:18.630Z,35.34
2023-03-20T20:02:52.470Z,34.42
2023-03-20T20:04:14.841Z,33.22
2023-03-20T20:05:49.841Z,35.06
2023-03-20T20:08:00.637Z,34.81
2023-03-20T20:08:56.966Z,35.93
2023-03-20T20:10:20.865Z,33.87
2023-03-20T20:12:06.490Z,31.05
2023-03-20T20:14:00.144Z,29.34
2023-03-20T20:15:24.558Z,28.07
2023-03-20T20:16:52.505Z,29.68
2023-03-20T20:18:24.397Z,29.62
2023-03-20T20:20:20.636Z,26.07
2023-03-20T20:22:20.057Z,22.71
2023-03-20T20:24:15.830Z,19.29
2023-03-20T20:25:40.131Z,18.92
2023-03-20T20:27:17.483Z,19.47
2023-03-20T20:28:51.277Z,18.33
2023-03-20T20:30:25.135Z,19.01
2023-03-20T20:32:11.216Z,20.20
2023-03-20T20:33:36.350Z,19.50
2023-03-20T20:35:45.512Z,19.38
2023-03-20T20:38:52.181Z,16.68
2023-03-20T20:40:23.533Z,17.62
2023-03-20T20:41:59.748Z,16.60
2023-03-20T20:44:11.547Z,16.57
2023-03-20T20:45:37.373Z,15.39
2023-03-20T20:46:59.291Z,15.22
2023-03-20T20:48:21.200Z,14.32
2023-03-20T20:49:54.544Z,13.73
2023-03-20T20:51:28.641Z,14.41
2023-03-20T20:53:01.745Z,13.35
2023-03-20T20:54:38.411Z,14.42
2023-03-20T20:56:02.451Z,14.20
2023-03-20T20:57:31.695Z,15.27
2023-03-20T20:59:12.300Z,15.43
2023-03-20T21:00:50.915Z,15.25
2023-03-20T21:02:20.701Z,16.25
2023-03-20T21:03:54.642Z,24.45
2023-03-20T21:05:23.407Z,33.16
2023-03-20T21:07:08.604Z,32.88
2023-03-20T21:08:41.964Z,27.94
2023-03-20T21:10:24.417Z,21.22